Unicom:                    122.8

AWOS:                  118.275

Elevation           1458’ MSL

TPA:                   2500’ MSL

06/24:         5003’ L   75’ W

PAPI:       06/Left     24/Left

(Operate lights on unicom freq.)

Traffic Pattern: Left

Beacon: Sunset to Sunrise

Windsock: yes, lighted

Segmented Circle: No

 

Cleveland Center: 126.72/291.65

FSS: Altoona

[Source: ADDS]
METAR
KFKL 071747Z AUTO 25006KT 10SM BKN027 OVC033 M03/M09 A3015 RMK AO2 SNE37 P0000 FZRANO =
KFKL 071722Z 0718/0818 25006KT P6SM OVC045 FM080400 00000KT P6SM BKN050 TEMPO 0805/0809 4SM -SN FM080900 VRB02KT P6SM OVC050 FM081700 23005KT P6SM OVC060
TAF
KFKL 071722Z 0718/0818 25006KT P6SM OVC045 FM080400 00000KT P6SM BKN050 TEMPO 0805/0809 4SM -SN FM080900 VRB02KT P6SM OVC050 FM081700 23005KT P6SM OVC060 =
[Source: ADDS]
METAR
KDUJ 071736Z AUTO 23008KT 10SM BKN018 OVC038 M03/M08 A3012 RMK AO2 T10281078 =
KDUJ 071722Z 0718/0818 25010KT P6SM SCT015 OVC040 FM080600 17003KT P6SM OVC050 TEMPO 0806/0810 4SM -SN FM081000 VRB02KT P6SM OVC040 FM081600 21005KT P6SM OVC060
TAF
KDUJ 071722Z 0718/0818 25010KT P6SM SCT015 OVC040 FM080600 17003KT P6SM OVC050 TEMPO 0806/0810 4SM -SN FM081000 VRB02KT P6SM OVC040 FM081600 21005KT P6SM OVC060 =

Information.  


[Source: ADDS]
METAR
KFKL 071747Z AUTO 25006KT 10SM BKN027 OVC033 M03/M09 A3015 RMK AO2 SNE37 P0000 FZRANO =
KFKL 071722Z 0718/0818 25006KT P6SM OVC045 FM080400 00000KT P6SM BKN050 TEMPO 0805/0809 4SM -SN FM080900 VRB02KT P6SM OVC050 FM081700 23005KT P6SM OVC060
TAF
KFKL 071722Z 0718/0818 25006KT P6SM OVC045 FM080400 00000KT P6SM BKN050 TEMPO 0805/0809 4SM -SN FM080900 VRB02KT P6SM OVC050 FM081700 23005KT P6SM OVC060 =
[Source: ADDS]
METAR
KDUJ 071736Z AUTO 23008KT 10SM BKN018 OVC038 M03/M08 A3012 RMK AO2 T10281078 =
KDUJ 071722Z 0718/0818 25010KT P6SM SCT015 OVC040 FM080600 17003KT P6SM OVC050 TEMPO 0806/0810 4SM -SN FM081000 VRB02KT P6SM OVC040 FM081600 21005KT P6SM OVC060
TAF
KDUJ 071722Z 0718/0818 25010KT P6SM SCT015 OVC040 FM080600 17003KT P6SM OVC050 TEMPO 0806/0810 4SM -SN FM081000 VRB02KT P6SM OVC040 FM081600 21005KT P6SM OVC060 =